sensor_id;sensor_type;location;lat;lon;timestamp;pressure;altitude;pressure_sealevel;temperature;humidity
73063;BME280;61230;46.328;19.972;2023-05-23T00:01:51;100248.41;;;14.45;100.00
73063;BME280;61230;46.328;19.972;2023-05-23T00:04:21;100262.19;;;14.41;100.00
73063;BME280;61230;46.328;19.972;2023-05-23T00:06:53;100296.28;;;14.35;100.00
73063;BME280;61230;46.328;19.972;2023-05-23T00:09:21;100301.56;;;14.27;100.00
73063;BME280;61230;46.328;19.972;2023-05-23T00:11:49;100295.94;;;14.38;100.00
73063;BME280;61230;46.328;19.972;2023-05-23T00:14:16;100299.56;;;14.46;100.00
73063;BME280;61230;46.328;19.972;2023-05-23T00:16:45;100297.56;;;14.39;100.00
73063;BME280;61230;46.328;19.972;2023-05-23T00:19:16;100297.75;;;14.30;100.00
73063;BME280;61230;46.328;19.972;2023-05-23T00:21:45;100294.25;;;14.29;100.00
73063;BME280;61230;46.328;19.972;2023-05-23T00:24:16;100292.16;;;14.33;100.00
73063;BME280;61230;46.328;19.972;2023-05-23T00:26:45;100291.44;;;14.39;100.00
73063;BME280;61230;46.328;19.972;2023-05-23T00:29:14;100290.97;;;14.35;100.00
73063;BME280;61230;46.328;19.972;2023-05-23T00:31:44;100245.00;;;14.04;100.00
73063;BME280;61230;46.328;19.972;2023-05-23T00:34:16;100294.91;;;14.31;100.00
73063;BME280;61230;46.328;19.972;2023-05-23T00:36:45;100287.94;;;14.30;100.00
73063;BME280;61230;46.328;19.972;2023-05-23T00:39:16;100286.84;;;14.33;100.00
73063;BME280;61230;46.328;19.972;2023-05-23T00:41:49;100291.31;;;14.32;100.00
73063;BME280;61230;46.328;19.972;2023-05-23T00:44:19;100241.19;;;14.07;100.00
73063;BME280;61230;46.328;19.972;2023-05-23T00:46:51;100282.84;;;14.29;100.00
73063;BME280;61230;46.328;19.972;2023-05-23T00:49:21;100283.81;;;14.28;100.00
73063;BME280;61230;46.328;19.972;2023-05-23T00:51:50;100291.31;;;14.32;100.00
73063;BME280;61230;46.328;19.972;2023-05-23T00:54:27;100289.81;;;14.38;100.00
73063;BME280;61230;46.328;19.972;2023-05-23T00:56:57;100295.25;;;14.36;100.00
73063;BME280;61230;46.328;19.972;2023-05-23T00:59:25;100285.50;;;14.21;100.00
73063;BME280;61230;46.328;19.972;2023-05-23T01:01:55;100290.28;;;14.25;100.00
73063;BME280;61230;46.328;19.972;2023-05-23T01:04:23;100282.88;;;14.13;100.00
73063;BME280;61230;46.328;19.972;2023-05-23T01:06:54;100291.47;;;13.99;100.00
73063;BME280;61230;46.328;19.972;2023-05-23T01:09:23;100265.66;;;13.68;100.00
73063;BME280;61230;46.328;19.972;2023-05-23T01:12:13;100280.72;;;13.84;100.00
73063;BME280;61230;46.328;19.972;2023-05-23T01:14:54;100282.38;;;13.93;100.00
73063;BME280;61230;46.328;19.972;2023-05-23T01:17:49;100283.03;;;13.95;100.00
73063;BME280;61230;46.328;19.972;2023-05-23T01:20:58;100287.16;;;13.98;100.00
73063;BME280;61230;46.328;19.972;2023-05-23T01:29:44;100284.03;;;13.86;100.00
73063;BME280;61230;46.328;19.972;2023-05-23T01:31:52;100277.06;;;13.85;100.00
73063;BME280;61230;46.328;19.972;2023-05-23T01:34:21;100279.38;;;13.80;100.00
73063;BME280;61230;46.328;19.972;2023-05-23T01:36:52;100271.31;;;13.81;100.00
73063;BME280;61230;46.328;19.972;2023-05-23T01:39:22;100280.53;;;13.86;100.00
73063;BME280;61230;46.328;19.972;2023-05-23T01:41:50;100275.94;;;13.88;100.00
73063;BME280;61230;46.328;19.972;2023-05-23T01:44:19;100270.66;;;13.88;100.00
73063;BME280;61230;46.328;19.972;2023-05-23T01:46:48;100275.56;;;13.91;100.00
73063;BME280;61230;46.328;19.972;2023-05-23T01:49:17;100230.44;;;13.44;100.00
73063;BME280;61230;46.328;19.972;2023-05-23T01:51:45;100278.22;;;13.82;100.00
73063;BME280;61230;46.328;19.972;2023-05-23T01:54:14;100273.78;;;13.83;100.00
73063;BME280;61230;46.328;19.972;2023-05-23T01:56:43;100271.13;;;13.91;100.00
73063;BME280;61230;46.328;19.972;2023-05-23T01:59:11;100275.25;;;13.94;100.00
73063;BME280;61230;46.328;19.972;2023-05-23T02:01:39;100276.75;;;13.96;100.00
73063;BME280;61230;46.328;19.972;2023-05-23T02:04:08;100272.13;;;13.98;100.00
73063;BME280;61230;46.328;19.972;2023-05-23T02:06:35;100223.34;;;13.76;100.00
73063;BME280;61230;46.328;19.972;2023-05-23T02:09:03;100269.12;;;14.09;100.00
73063;BME280;61230;46.328;19.972;2023-05-23T02:11:31;100264.84;;;14.08;100.00
73063;BME280;61230;46.328;19.972;2023-05-23T02:13:58;100268.81;;;14.12;100.00
73063;BME280;61230;46.328;19.972;2023-05-23T02:16:26;100270.44;;;14.13;100.00
73063;BME280;61230;46.328;19.972;2023-05-23T02:18:54;100268.81;;;14.12;100.00
73063;BME280;61230;46.328;19.972;2023-05-23T02:21:23;100263.84;;;13.85;100.00
73063;BME280;61230;46.328;19.972;2023-05-23T02:23:50;100272.78;;;13.76;100.00
73063;BME280;61230;46.328;19.972;2023-05-23T02:26:18;100269.81;;;13.79;100.00
73063;BME280;61230;46.328;19.972;2023-05-23T02:28:46;100276.75;;;13.80;100.00
73063;BME280;61230;46.328;19.972;2023-05-23T02:31:14;100274.94;;;13.80;100.00
73063;BME280;61230;46.328;19.972;2023-05-23T02:33:43;100269.97;;;13.77;100.00
73063;BME280;61230;46.328;19.972;2023-05-23T02:36:11;100273.59;;;13.76;100.00
73063;BME280;61230;46.328;19.972;2023-05-23T02:38:39;100276.09;;;13.86;100.00
73063;BME280;61230;46.328;19.972;2023-05-23T02:41:06;100271.31;;;13.90;100.00
73063;BME280;61230;46.328;19.972;2023-05-23T02:43:34;100269.12;;;13.77;100.00
73063;BME280;61230;46.328;19.972;2023-05-23T02:46:03;100268.81;;;13.80;100.00
73063;BME280;61230;46.328;19.972;2023-05-23T02:48:32;100275.09;;;13.87;100.00
73063;BME280;61230;46.328;19.972;2023-05-23T02:51:00;100274.78;;;13.82;100.00
73063;BME280;61230;46.328;19.972;2023-05-23T02:53:27;100229.94;;;13.48;100.00
73063;BME280;61230;46.328;19.972;2023-05-23T02:55:55;100280.06;;;13.90;100.00
73063;BME280;61230;46.328;19.972;2023-05-23T02:58:23;100273.09;;;13.97;100.00
73063;BME280;61230;46.328;19.972;2023-05-23T03:00:51;100263.84;;;14.01;100.00
73063;BME280;61230;46.328;19.972;2023-05-23T03:03:19;100260.69;;;14.06;100.00
73063;BME280;61230;46.328;19.972;2023-05-23T03:05:47;100276.06;;;14.02;100.00
73063;BME280;61230;46.328;19.972;2023-05-23T03:08:15;100266.84;;;13.90;100.00
73063;BME280;61230;46.328;19.972;2023-05-23T03:10:42;100263.69;;;13.95;100.00
73063;BME280;61230;46.328;19.972;2023-05-23T03:13:10;100266.19;;;13.96;100.00
73063;BME280;61230;46.328;19.972;2023-05-23T03:15:38;100261.06;;;13.87;100.00
73063;BME280;61230;46.328;19.972;2023-05-23T03:18:06;100261.19;;;13.77;100.00
73063;BME280;61230;46.328;19.972;2023-05-23T03:20:34;100270.63;;;13.79;100.00
73063;BME280;61230;46.328;19.972;2023-05-23T03:23:03;100262.53;;;13.89;100.00
73063;BME280;61230;46.328;19.972;2023-05-23T03:25:30;100267.16;;;13.95;100.00
73063;BME280;61230;46.328;19.972;2023-05-23T03:27:58;100270.97;;;14.01;100.00
73063;BME280;61230;46.328;19.972;2023-05-23T03:30:26;100270.63;;;14.04;100.00
73063;BME280;61230;46.328;19.972;2023-05-23T03:32:53;100275.41;;;14.08;100.00
73063;BME280;61230;46.328;19.972;2023-05-23T03:35:22;100273.28;;;14.12;100.00
73063;BME280;61230;46.328;19.972;2023-05-23T03:37:49;100273.25;;;14.20;100.00
73063;BME280;61230;46.328;19.972;2023-05-23T03:40:17;100270.13;;;14.24;100.00
73063;BME280;61230;46.328;19.972;2023-05-23T03:42:47;100266.78;;;14.30;100.00
73063;BME280;61230;46.328;19.972;2023-05-23T03:45:15;100266.12;;;14.36;100.00
73063;BME280;61230;46.328;19.972;2023-05-23T03:47:45;100268.13;;;14.43;100.00
73063;BME280;61230;46.328;19.972;2023-05-23T03:50:13;100265.62;;;14.49;100.00
73063;BME280;61230;46.328;19.972;2023-05-23T03:52:42;100271.41;;;14.53;100.00
73063;BME280;61230;46.328;19.972;2023-05-23T03:55:10;100273.38;;;14.59;100.00
73063;BME280;61230;46.328;19.972;2023-05-23T03:57:38;100277.97;;;14.65;100.00
73063;BME280;61230;46.328;19.972;2023-05-23T04:00:09;100269.69;;;14.68;100.00
73063;BME280;61230;46.328;19.972;2023-05-23T04:02:43;100275.78;;;14.76;100.00
73063;BME280;61230;46.328;19.972;2023-05-23T04:05:14;100269.66;;;14.84;100.00
73063;BME280;61230;46.328;19.972;2023-05-23T04:07:42;100272.44;;;14.90;100.00
73063;BME280;61230;46.328;19.972;2023-05-23T04:10:10;100278.75;;;14.89;100.00
73063;BME280;61230;46.328;19.972;2023-05-23T04:12:40;100276.06;;;14.98;100.00
73063;BME280;61230;46.328;19.972;2023-05-23T04:15:10;100276.38;;;15.03;100.00
73063;BME280;61230;46.328;19.972;2023-05-23T04:17:38;100279.50;;;15.06;100.00
73063;BME280;61230;46.328;19.972;2023-05-23T04:20:07;100282.09;;;15.14;100.00
73063;BME280;61230;46.328;19.972;2023-05-23T04:22:36;100248.09;;;14.95;100.00
73063;BME280;61230;46.328;19.972;2023-05-23T04:25:04;100283.44;;;15.18;100.00
73063;BME280;61230;46.328;19.972;2023-05-23T04:27:34;100282.69;;;15.24;100.00
73063;BME280;61230;46.328;19.972;2023-05-23T04:30:06;100293.09;;;15.34;100.00
73063;BME280;61230;46.328;19.972;2023-05-23T04:32:35;100288.75;;;15.41;100.00
73063;BME280;61230;46.328;19.972;2023-05-23T04:35:05;100281.63;;;15.49;100.00
73063;BME280;61230;46.328;19.972;2023-05-23T04:37:35;100291.03;;;15.52;100.00
73063;BME280;61230;46.328;19.972;2023-05-23T04:40:05;100282.69;;;15.63;100.00
73063;BME280;61230;46.328;19.972;2023-05-23T04:42:34;100282.44;;;15.73;100.00
73063;BME280;61230;46.328;19.972;2023-05-23T04:45:02;100287.50;;;15.82;100.00
73063;BME280;61230;46.328;19.972;2023-05-23T04:47:31;100292.28;;;15.87;100.00
73063;BME280;61230;46.328;19.972;2023-05-23T04:50:04;100283.59;;;15.93;100.00
73063;BME280;61230;46.328;19.972;2023-05-23T04:52:33;100293.50;;;15.99;100.00
73063;BME280;61230;46.328;19.972;2023-05-23T04:55:01;100298.09;;;16.05;100.00
73063;BME280;61230;46.328;19.972;2023-05-23T04:57:29;100282.75;;;16.15;100.00
73063;BME280;61230;46.328;19.972;2023-05-23T04:59:57;100276.34;;;16.24;100.00
73063;BME280;61230;46.328;19.972;2023-05-23T05:02:25;100279.88;;;16.39;100.00
73063;BME280;61230;46.328;19.972;2023-05-23T05:04:54;100279.41;;;16.50;100.00
73063;BME280;61230;46.328;19.972;2023-05-23T05:07:21;100275.69;;;16.59;100.00
73063;BME280;61230;46.328;19.972;2023-05-23T05:09:49;100235.00;;;16.44;100.00
73063;BME280;61230;46.328;19.972;2023-05-23T05:12:17;100274.69;;;16.75;100.00
73063;BME280;61230;46.328;19.972;2023-05-23T05:14:45;100274.41;;;16.85;100.00
73063;BME280;61230;46.328;19.972;2023-05-23T05:17:13;100274.78;;;16.96;100.00
73063;BME280;61230;46.328;19.972;2023-05-23T05:19:41;100265.75;;;17.12;100.00
73063;BME280;61230;46.328;19.972;2023-05-23T05:22:08;100268.84;;;17.30;100.00
73063;BME280;61230;46.328;19.972;2023-05-23T05:24:36;100270.72;;;17.51;100.00
73063;BME280;61230;46.328;19.972;2023-05-23T05:27:04;100284.03;;;17.72;100.00
73063;BME280;61230;46.328;19.972;2023-05-23T05:29:32;100278.03;;;17.85;100.00
73063;BME280;61230;46.328;19.972;2023-05-23T05:32:01;100245.13;;;17.71;100.00
73063;BME280;61230;46.328;19.972;2023-05-23T05:34:30;100283.19;;;18.14;100.00
73063;BME280;61230;46.328;19.972;2023-05-23T05:36:58;100288.84;;;18.32;100.00
73063;BME280;61230;46.328;19.972;2023-05-23T05:39:26;100289.03;;;18.52;100.00
73063;BME280;61230;46.328;19.972;2023-05-23T05:41:54;100282.38;;;18.69;100.00
73063;BME280;61230;46.328;19.972;2023-05-23T05:44:23;100264.81;;;18.81;100.00
73063;BME280;61230;46.328;19.972;2023-05-23T05:46:50;100276.78;;;18.98;99.96
73063;BME280;61230;46.328;19.972;2023-05-23T05:49:18;100282.38;;;19.10;99.72
73063;BME280;61230;46.328;19.972;2023-05-23T05:51:46;100276.03;;;19.17;100.00
73063;BME280;61230;46.328;19.972;2023-05-23T05:54:14;100277.91;;;19.23;100.00
73063;BME280;61230;46.328;19.972;2023-05-23T05:56:46;100282.09;;;19.39;98.75
73063;BME280;61230;46.328;19.972;2023-05-23T05:59:14;100285.22;;;19.49;96.60
73063;BME280;61230;46.328;19.972;2023-05-23T06:01:43;100273.31;;;19.52;97.10
73063;BME280;61230;46.328;19.972;2023-05-23T06:04:11;100283.81;;;19.66;97.24
73063;BME280;61230;46.328;19.972;2023-05-23T06:06:40;100286.47;;;19.73;94.21
73063;BME280;61230;46.328;19.972;2023-05-23T06:09:09;100282.56;;;19.75;93.74
73063;BME280;61230;46.328;19.972;2023-05-23T06:11:38;100283.84;;;19.86;91.72
73063;BME280;61230;46.328;19.972;2023-05-23T06:14:07;100282.81;;;19.93;91.90
73063;BME280;61230;46.328;19.972;2023-05-23T06:16:36;100276.03;;;19.91;92.65
73063;BME280;61230;46.328;19.972;2023-05-23T06:19:05;100280.56;;;20.03;91.85
73063;BME280;61230;46.328;19.972;2023-05-23T06:21:32;100286.31;;;20.20;91.51
73063;BME280;61230;46.328;19.972;2023-05-23T06:24:01;100289.59;;;20.22;91.26
73063;BME280;61230;46.328;19.972;2023-05-23T06:26:29;100287.72;;;20.09;91.14
73063;BME280;61230;46.328;19.972;2023-05-23T06:28:57;100294.56;;;20.32;91.29
73063;BME280;61230;46.328;19.972;2023-05-23T06:31:24;100291.03;;;20.38;90.59
73063;BME280;61230;46.328;19.972;2023-05-23T06:33:52;100293.53;;;20.46;92.18
73063;BME280;61230;46.328;19.972;2023-05-23T06:36:20;100292.66;;;20.52;92.28
73063;BME280;61230;46.328;19.972;2023-05-23T06:38:48;100295.97;;;20.41;91.85
73063;BME280;61230;46.328;19.972;2023-05-23T06:41:16;100289.94;;;20.85;89.66
73063;BME280;61230;46.328;19.972;2023-05-23T06:43:43;100292.38;;;20.99;89.66
73063;BME280;61230;46.328;19.972;2023-05-23T06:46:11;100293.34;;;21.18;88.11
73063;BME280;61230;46.328;19.972;2023-05-23T06:48:39;100291.50;;;21.18;86.65
73063;BME280;61230;46.328;19.972;2023-05-23T06:51:08;100294.00;;;21.13;86.69
73063;BME280;61230;46.328;19.972;2023-05-23T06:53:37;100265.72;;;21.24;85.36
73063;BME280;61230;46.328;19.972;2023-05-23T06:56:04;100295.56;;;21.65;84.84
73063;BME280;61230;46.328;19.972;2023-05-23T06:58:34;100288.09;;;21.74;83.45
73063;BME280;61230;46.328;19.972;2023-05-23T07:01:02;100298.50;;;21.95;83.83
73063;BME280;61230;46.328;19.972;2023-05-23T07:03:30;100292.88;;;22.03;82.42
73063;BME280;61230;46.328;19.972;2023-05-23T07:05:58;100289.03;;;22.17;82.75
73063;BME280;61230;46.328;19.972;2023-05-23T07:08:26;100290.16;;;22.28;79.93
73063;BME280;61230;46.328;19.972;2023-05-23T07:10:54;100282.66;;;22.37;80.30
73063;BME280;61230;46.328;19.972;2023-05-23T07:13:22;100279.59;;;22.58;80.50
73063;BME280;61230;46.328;19.972;2023-05-23T07:15:49;100280.16;;;22.17;79.21
73063;BME280;61230;46.328;19.972;2023-05-23T07:18:17;100277.94;;;22.57;79.96
73063;BME280;61230;46.328;19.972;2023-05-23T07:20:45;100287.38;;;22.66;80.51
73063;BME280;61230;46.328;19.972;2023-05-23T07:23:14;100278.38;;;22.78;80.05
73063;BME280;61230;46.328;19.972;2023-05-23T07:25:43;100286.19;;;22.80;80.14
73063;BME280;61230;46.328;19.972;2023-05-23T07:28:28;100289.84;;;22.85;78.41
73063;BME280;61230;46.328;19.972;2023-05-23T07:30:56;100283.81;;;22.90;76.02
73063;BME280;61230;46.328;19.972;2023-05-23T07:33:25;100253.72;;;22.70;77.07
73063;BME280;61230;46.328;19.972;2023-05-23T07:35:53;100282.44;;;22.99;76.66
73063;BME280;61230;46.328;19.972;2023-05-23T07:38:21;100286.72;;;23.36;75.49
73063;BME280;61230;46.328;19.972;2023-05-23T07:40:48;100285.53;;;23.51;75.44
73063;BME280;61230;46.328;19.972;2023-05-23T07:43:29;100282.69;;;23.64;73.81
73063;BME280;61230;46.328;19.972;2023-05-23T07:45:57;100280.97;;;23.81;73.11
73063;BME280;61230;46.328;19.972;2023-05-23T07:48:24;100279.69;;;23.83;73.98
73063;BME280;61230;46.328;19.972;2023-05-23T07:50:53;100276.06;;;23.78;74.27
73063;BME280;61230;46.328;19.972;2023-05-23T07:53:22;100285.63;;;23.74;73.63
73063;BME280;61230;46.328;19.972;2023-05-23T07:55:49;100273.63;;;23.47;72.65
73063;BME280;61230;46.328;19.972;2023-05-23T07:58:17;100282.62;;;23.52;73.09
73063;BME280;61230;46.328;19.972;2023-05-23T08:00:46;100285.38;;;23.64;73.07
73063;BME280;61230;46.328;19.972;2023-05-23T08:03:21;100286.81;;;23.78;70.64
73063;BME280;61230;46.328;19.972;2023-05-23T08:05:49;100259.44;;;23.69;71.32
73063;BME280;61230;46.328;19.972;2023-05-23T08:08:17;100286.12;;;23.94;72.32
73063;BME280;61230;46.328;19.972;2023-05-23T08:10:45;100284.03;;;23.96;72.09
73063;BME280;61230;46.328;19.972;2023-05-23T08:13:14;100280.50;;;23.95;72.34
73063;BME280;61230;46.328;19.972;2023-05-23T08:15:43;100281.81;;;23.93;72.71
73063;BME280;61230;46.328;19.972;2023-05-23T08:18:13;100250.91;;;23.61;73.35
73063;BME280;61230;46.328;19.972;2023-05-23T08:20:41;100279.72;;;23.95;72.04
73063;BME280;61230;46.328;19.972;2023-05-23T08:23:09;100285.78;;;23.90;71.98
73063;BME280;61230;46.328;19.972;2023-05-23T08:25:39;100289.53;;;23.89;72.11
73063;BME280;61230;46.328;19.972;2023-05-23T08:28:07;100280.47;;;24.14;70.53
73063;BME280;61230;46.328;19.972;2023-05-23T08:30:35;100284.47;;;24.34;69.91
73063;BME280;61230;46.328;19.972;2023-05-23T08:33:04;100287.72;;;24.59;69.76
73063;BME280;61230;46.328;19.972;2023-05-23T08:35:32;100286.53;;;24.67;68.60
73063;BME280;61230;46.328;19.972;2023-05-23T08:38:04;100278.72;;;24.89;67.48
73063;BME280;61230;46.328;19.972;2023-05-23T08:40:35;100285.47;;;25.03;65.38
73063;BME280;61230;46.328;19.972;2023-05-23T08:43:03;100282.88;;;25.08;65.05
73063;BME280;61230;46.328;19.972;2023-05-23T08:45:31;100251.53;;;25.02;64.96
73063;BME280;61230;46.328;19.972;2023-05-23T08:48:02;100277.06;;;25.28;64.65
73063;BME280;61230;46.328;19.972;2023-05-23T08:50:36;100282.09;;;25.36;65.21
73063;BME280;61230;46.328;19.972;2023-05-23T08:53:08;100273.12;;;25.47;64.77
73063;BME280;61230;46.328;19.972;2023-05-23T08:55:40;100270.31;;;25.53;64.48
73063;BME280;61230;46.328;19.972;2023-05-23T08:58:08;100271.47;;;25.57;64.09
73063;BME280;61230;46.328;19.972;2023-05-23T09:00:36;100233.84;;;25.34;61.07
73063;BME280;61230;46.328;19.972;2023-05-23T09:03:04;100267.59;;;25.82;60.75
73063;BME280;61230;46.328;19.972;2023-05-23T09:05:34;100267.75;;;25.92;59.41
73063;BME280;61230;46.328;19.972;2023-05-23T09:08:03;100268.09;;;25.95;59.83
73063;BME280;61230;46.328;19.972;2023-05-23T09:10:31;100269.88;;;26.06;60.75
73063;BME280;61230;46.328;19.972;2023-05-23T09:12:59;100264.75;;;26.21;59.78
73063;BME280;61230;46.328;19.972;2023-05-23T09:15:28;100264.09;;;26.31;59.88
73063;BME280;61230;46.328;19.972;2023-05-23T09:18:00;100266.47;;;26.27;58.84
73063;BME280;61230;46.328;19.972;2023-05-23T09:20:29;100272.19;;;26.31;58.36
73063;BME280;61230;46.328;19.972;2023-05-23T09:22:57;100235.06;;;26.05;55.78
73063;BME280;61230;46.328;19.972;2023-05-23T09:25:26;100261.69;;;26.51;57.41
73063;BME280;61230;46.328;19.972;2023-05-23T09:27:54;100268.66;;;26.47;54.94
73063;BME280;61230;46.328;19.972;2023-05-23T09:30:26;100261.72;;;26.35;57.05
73063;BME280;61230;46.328;19.972;2023-05-23T09:32:58;100272.97;;;26.48;57.63
73063;BME280;61230;46.328;19.972;2023-05-23T09:35:31;100232.38;;;26.38;58.29
73063;BME280;61230;46.328;19.972;2023-05-23T09:37:59;100268.22;;;26.55;56.94
73063;BME280;61230;46.328;19.972;2023-05-23T09:40:30;100269.06;;;26.56;56.00
73063;BME280;61230;46.328;19.972;2023-05-23T09:43:03;100231.06;;;26.62;56.17
73063;BME280;61230;46.328;19.972;2023-05-23T09:45:32;100268.34;;;26.44;53.14
73063;BME280;61230;46.328;19.972;2023-05-23T09:48:00;100261.97;;;26.71;53.83
73063;BME280;61230;46.328;19.972;2023-05-23T09:50:32;100261.84;;;26.61;54.63
73063;BME280;61230;46.328;19.972;2023-05-23T09:53:02;100263.66;;;26.77;53.77
73063;BME280;61230;46.328;19.972;2023-05-23T09:55:30;100260.25;;;27.04;56.43
73063;BME280;61230;46.328;19.972;2023-05-23T09:57:58;100254.03;;;27.03;54.91
73063;BME280;61230;46.328;19.972;2023-05-23T10:00:28;100257.09;;;27.12;53.75
73063;BME280;61230;46.328;19.972;2023-05-23T10:03:13;100253.47;;;27.01;53.42
73063;BME280;61230;46.328;19.972;2023-05-23T10:05:45;100250.06;;;27.11;53.02
73063;BME280;61230;46.328;19.972;2023-05-23T10:08:35;100181.41;;;27.07;53.57
73063;BME280;61230;46.328;19.972;2023-05-23T10:13:43;100245.75;;;27.36;54.58
73063;BME280;61230;46.328;19.972;2023-05-23T10:16:14;100232.53;;;27.40;53.92
73063;BME280;61230;46.328;19.972;2023-05-23T10:18:44;100197.59;;;27.55;53.88
73063;BME280;61230;46.328;19.972;2023-05-23T10:21:18;100239.97;;;27.50;54.34
73063;BME280;61230;46.328;19.972;2023-05-23T10:23:47;100231.94;;;27.60;52.61
73063;BME280;61230;46.328;19.972;2023-05-23T10:26:16;100230.97;;;27.71;53.07
73063;BME280;61230;46.328;19.972;2023-05-23T10:28:44;100233.50;;;27.51;51.03
73063;BME280;61230;46.328;19.972;2023-05-23T10:31:13;100220.13;;;27.66;49.87
73063;BME280;61230;46.328;19.972;2023-05-23T10:33:43;100225.00;;;27.69;49.57
73063;BME280;61230;46.328;19.972;2023-05-23T10:36:20;100227.84;;;27.84;48.18
73063;BME280;61230;46.328;19.972;2023-05-23T10:39:15;100220.13;;;28.03;46.92
73063;BME280;61230;46.328;19.972;2023-05-23T10:41:49;100222.12;;;27.80;46.47
73063;BME280;61230;46.328;19.972;2023-05-23T10:46:53;100211.56;;;28.11;47.71
73063;BME280;61230;46.328;19.972;2023-05-23T10:49:21;100210.63;;;27.63;45.28
73063;BME280;61230;46.328;19.972;2023-05-23T10:52:04;100207.00;;;27.84;44.46
73063;BME280;61230;46.328;19.972;2023-05-23T10:54:34;100205.50;;;27.98;45.28
73063;BME280;61230;46.328;19.972;2023-05-23T10:57:03;100203.03;;;28.29;45.68
73063;BME280;61230;46.328;19.972;2023-05-23T10:59:32;100194.72;;;28.40;43.76
73063;BME280;61230;46.328;19.972;2023-05-23T11:01:59;100180.34;;;27.34;43.13
73063;BME280;61230;46.328;19.972;2023-05-23T11:04:28;100184.91;;;27.92;44.54
73063;BME280;61230;46.328;19.972;2023-05-23T11:06:56;100192.56;;;28.52;43.57
73063;BME280;61230;46.328;19.972;2023-05-23T11:09:24;100183.81;;;28.82;43.23
73063;BME280;61230;46.328;19.972;2023-05-23T11:12:04;100183.81;;;28.82;43.74
73063;BME280;61230;46.328;19.972;2023-05-23T11:14:52;100178.75;;;29.06;43.97
73063;BME280;61230;46.328;19.972;2023-05-23T11:17:32;100168.19;;;29.15;42.84
73063;BME280;61230;46.328;19.972;2023-05-23T11:20:05;100173.09;;;29.33;44.07
73063;BME280;61230;46.328;19.972;2023-05-23T11:22:36;100164.72;;;29.54;42.46
73063;BME280;61230;46.328;19.972;2023-05-23T11:25:07;100176.09;;;28.07;42.95
73063;BME280;61230;46.328;19.972;2023-05-23T11:27:40;100161.84;;;28.84;44.37
73063;BME280;61230;46.328;19.972;2023-05-23T11:30:14;100156.59;;;29.54;42.43
73063;BME280;61230;46.328;19.972;2023-05-23T11:32:53;100158.69;;;29.17;40.45
73063;BME280;61230;46.328;19.972;2023-05-23T11:35:22;100124.00;;;29.09;41.22
73063;BME280;61230;46.328;19.972;2023-05-23T11:37:50;100159.03;;;29.71;42.28
73063;BME280;61230;46.328;19.972;2023-05-23T11:40:33;100158.19;;;29.71;42.34
73063;BME280;61230;46.328;19.972;2023-05-23T11:43:04;100163.91;;;29.99;42.82
73063;BME280;61230;46.328;19.972;2023-05-23T11:45:33;100130.50;;;30.04;41.74
73063;BME280;61230;46.328;19.972;2023-05-23T11:48:06;100160.06;;;30.10;41.13
73063;BME280;61230;46.328;19.972;2023-05-23T11:50:50;100155.66;;;30.45;40.86
73063;BME280;61230;46.328;19.972;2023-05-23T11:53:20;100157.66;;;29.89;42.24
73063;BME280;61230;46.328;19.972;2023-05-23T11:55:53;100156.03;;;29.57;40.64
73063;BME280;61230;46.328;19.972;2023-05-23T11:58:25;100157.66;;;29.89;42.20
73063;BME280;61230;46.328;19.972;2023-05-23T12:01:03;100167.00;;;28.80;45.67
73063;BME280;61230;46.328;19.972;2023-05-23T12:03:43;100170.31;;;27.98;46.51
73063;BME280;61230;46.328;19.972;2023-05-23T12:06:15;100161.75;;;27.70;48.79
73063;BME280;61230;46.328;19.972;2023-05-23T12:08:43;100166.56;;;27.36;46.08
73063;BME280;61230;46.328;19.972;2023-05-23T12:11:12;100161.66;;;26.79;45.35
73063;BME280;61230;46.328;19.972;2023-05-23T12:13:40;100173.22;;;26.15;49.81
73063;BME280;61230;46.328;19.972;2023-05-23T12:16:09;100167.66;;;25.55;50.19
73063;BME280;61230;46.328;19.972;2023-05-23T12:18:41;100164.66;;;25.23;51.86
73063;BME280;61230;46.328;19.972;2023-05-23T12:21:09;100128.69;;;24.73;56.61
73063;BME280;61230;46.328;19.972;2023-05-23T12:23:38;100163.63;;;24.44;58.59
73063;BME280;61230;46.328;19.972;2023-05-23T12:26:06;100162.34;;;24.35;61.39
73063;BME280;61230;46.328;19.972;2023-05-23T12:31:16;100149.31;;;23.92;62.72
73063;BME280;61230;46.328;19.972;2023-05-23T12:33:45;100141.56;;;23.84;64.17
73063;BME280;61230;46.328;19.972;2023-05-23T12:36:20;100134.91;;;23.87;67.35
73063;BME280;61230;46.328;19.972;2023-05-23T12:38:49;100129.97;;;24.07;63.60
73063;BME280;61230;46.328;19.972;2023-05-23T12:41:18;100136.28;;;24.01;64.69
73063;BME280;61230;46.328;19.972;2023-05-23T12:43:50;100133.38;;;24.02;62.19
73063;BME280;61230;46.328;19.972;2023-05-23T12:46:20;100126.72;;;24.05;60.13
73063;BME280;61230;46.328;19.972;2023-05-23T12:48:48;100123.69;;;24.13;61.90
73063;BME280;61230;46.328;19.972;2023-05-23T12:51:16;100121.59;;;24.15;61.61
73063;BME280;61230;46.328;19.972;2023-05-23T12:53:44;100129.31;;;24.23;60.19
73063;BME280;61230;46.328;19.972;2023-05-23T12:56:12;100128.09;;;24.42;62.11
73063;BME280;61230;46.328;19.972;2023-05-23T12:58:39;100127.12;;;24.48;60.47
73063;BME280;61230;46.328;19.972;2023-05-23T13:01:07;100123.09;;;24.34;60.54
73063;BME280;61230;46.328;19.972;2023-05-23T13:03:35;100115.41;;;24.94;60.05